Station: Roseworthy

  Atmospheric Gas Attenuation - ITU Rec 676-11   --------------- db/100km ---------------
Date Time Temp RH % AH g/m3 Dew Point Wind Direction Speed kph Gust kph Barometer mB Rainfall Since 9am 24GHz 47GHz 76GHz 122GHz 134GHz 241GHz
15 02:10 11.6 93 9.67 10.5 6 7 1016.3 3.4 22.0 28.5 45.6 119.8 116.4 401.1
15 02:00 11.5 93 9.61 10.4 7 7 1016.2 3.4 21.9 28.4 45.4 119.3 115.7 398.6
15 01:50 11.6 93 9.67 10.5 9 9 1016.1 3.4 22.0 28.5 45.6 119.8 116.4 401.0
15 01:40 11.6 93 9.67 10.5 9 11 1016 3.4 22.0 28.5 45.6 119.8 116.4 401.0
15 01:30 11.6 93 9.67 10.5 13 17 1015.9 3.4 22.0 28.5 45.6 119.8 116.4 401.0
15 01:20 11.8 93 9.79 10.7 13 15 1015.9 3.4 22.2 28.6 46.0 120.9 117.7 405.9
15 01:10 11.8 95 10 11 9 11 1015.7 3.4 22.7 29.0 46.9 123.3 120.7 416.3
15 01:00 11.8 96 10.11 11.2 7 9 1015.6 3.4 22.9 29.2 47.3 124.5 122.3 421.7
15 00:50 11.6 97 10.08 11.1 9 9 1015.5 3.4 22.9 29.2 47.3 124.5 122.2 421.3
15 00:40 11.6 97 10.08 11.1 7 7 1015.5 3.4 22.9 29.2 47.3 124.5 122.2 421.3
15 00:30 11.5 98 10.12 11.2 11 13 1015.5 3.4 23.0 29.3 47.6 125.1 122.9 423.9
15 00:20 10.7 97 9.53 10.2 7 9 1015.7 3.2 21.7 28.5 45.5 119.5 115.7 398.6
15 00:10 10.2 97 9.23 9.7 9 9 1015.7 3.2 21.1 28.1 44.5 116.8 112.2 386.2
15 00:00 9.1 97 8.61 8.6 7 9 1015.5 3.2 19.8 27.4 42.4 111.3 104.9 360.7
14 23:50 8.7 96 8.31 8.1 9 9 1015.5 3.2 19.2 27.0 41.3 108.4 101.2 347.7
14 23:40 9 97 8.55 8.5 11 11 1015.5 3.2 19.7 27.3 42.2 110.8 104.2 358.2
14 23:30 9.1 96 8.52 8.5 9 11 1015.3 3.2 19.6 27.3 42.0 110.2 103.6 356.2
14 23:20 9.3 96 8.63 8.7 9 9 1015.6 3.2 19.9 27.4 42.4 111.2 104.9 360.8
14 23:10 9.8 96 8.91 9.2 9 9 1015.6 3.2 20.5 27.7 43.3 113.7 108.2 372.2
14 23:00 10.6 96 9.37 10 7 7 1015.5 3.2 21.4 28.3 44.8 117.8 113.6 391.1
14 22:50 10.8 96 9.49 10.2 6 7 1015.4 3.2 21.7 28.4 45.2 118.9 115.0 396.0
14 22:40 10.7 97 9.53 10.2 6 7 1015.3 3.2 21.7 28.5 45.5 119.5 115.7 398.5
14 22:30 10.6 96 9.37 10 9 9 1015.2 3.2 21.4 28.2 44.8 117.8 113.5 391.0
14 22:20 10.6 96 9.37 10 9 9 1015.3 3.2 21.4 28.2 44.8 117.8 113.5 391.0
14 22:10 10.3 96 9.2 9.7 11 11 1015.2 3.2 21.1 28.0 44.3 116.3 111.6 384.0
14 22:00 10.5 96 9.31 9.9 7 9 1015.1 3.2 21.3 28.2 44.6 117.2 112.8 388.5
14 21:50 10.8 97 9.59 10.3 9 11 1015.2 3.2 21.9 28.6 45.7 120.0 116.4 400.9
14 21:40 10.4 97 9.35 9.9 9 11 1015.1 3.2 21.4 28.3 44.8 117.8 113.5 391.0
14 21:30 9.2 95 8.49 8.4 9 9 1015 3.2 19.6 27.2 41.8 109.7 103.1 354.2
14 21:20 9.7 95 8.76 8.9 9 9 1015 3.2 20.1 27.5 42.7 112.1 106.2 365.1
14 21:10 10.4 96 9.25 9.8 9 9 1015.1 3.2 21.2 28.1 44.4 116.7 112.1 386.0
14 21:00 10.3 95 9.1 9.5 7 9 1015.1 3.2 20.8 27.9 43.8 115.1 110.1 379.0
14 20:50 10.3 95 9.1 9.5 9 9 1015.1 3.2 20.8 27.9 43.8 115.1 110.1 379.0
14 20:40 10.4 95 9.16 9.6 11 11 1015.1 3.2 21.0 27.9 44.0 115.7 110.8 381.5
14 20:30 10.9 94 9.35 10 9 11 1015 3.2 21.3 28.1 44.6 117.1 112.8 388.4
14 20:20 11.4 94 9.65 10.5 7 9 1015 3.2 22.0 28.5 45.6 119.8 116.3 400.7
14 20:10 12.3 95 10.32 11.5 7 7 1015.1 3.2 23.4 29.3 47.9 126.1 124.4 429.3
14 20:00 12.1 95 10.19 11.3 7 9 1015 3.2 23.1 29.2 47.5 124.9 122.9 423.9
14 19:50 11.9 95 10.06 11.1 9 9 1015.1 3.2 22.8 29.0 47.0 123.7 121.4 418.5
14 19:40 11.7 95 9.94 10.9 9 9 1015 3.2 22.6 28.9 46.6 122.6 120.0 413.6
14 19:30 11.3 94 9.59 10.4 7 9 1014.8 3.2 21.8 28.4 45.3 119.2 115.6 398.2
14 19:20 11.7 93 9.73 10.6 7 7 1014.9 3.2 22.1 28.5 45.7 120.2 117.0 403.1
14 19:10 12 94 10.02 11.1 6 6 1014.8 3.2 22.7 28.9 46.8 123.1 120.6 415.9
14 19:00 11.9 94 9.96 11 7 9 1014.5 3.2 22.6 28.8 46.6 122.5 119.9 413.3
14 18:50 12.1 94 10.08 11.2 7 7 1014.5 3.2 22.9 29.0 47.0 123.6 121.3 418.2
14 18:40 12.1 91 9.76 10.7 7 7 1014.5 3.2 22.2 28.4 45.6 119.9 116.7 402.4
14 18:30 12.4 90 9.83 10.8 7 7 1014.4 3.2 22.3 28.4 45.7 120.2 117.2 404.2
14 18:20 12.9 90 10.14 11.3 9 9 1014.2 3.2 22.9 28.8 46.7 123.0 120.8 416.8
14 18:10 13.2 90 10.33 11.6 11 11 1014 3.2 23.3 29.0 47.4 124.6 123.0 424.5
14 18:00 13.6 90 10.59 12 11 11 1014 3.2 23.9 29.3 48.2 127.0 126.1 435.1
14 17:50 13.7 90 10.66 12.1 11 13 1013.8 3.2 24.0 29.4 48.5 127.6 126.9 438.0
14 17:40 13.5 89 10.41 11.7 11 13 1013.6 3.2 23.5 29.0 47.5 125.0 123.6 426.7
14 17:30 13.9 88 10.55 11.9 11 13 1013.6 3.2 23.8 29.1 47.9 126.0 125.0 431.3
14 17:20 14.3 87 10.69 12.2 13 13 1013.5 3.2 24.0 29.2 48.2 126.9 126.3 436.0
14 17:10 14.6 86 10.76 12.3 13 13 1013.4 3.2 24.2 29.3 48.3 127.2 126.7 437.7
14 17:00 15.2 85 11.03 12.7 17 22 1013.4 3.2 24.7 29.5 49.1 129.3 129.5 447.6
14 16:50 15.4 83 10.9 12.5 19 20 1013.4 3.2 24.4 29.2 48.4 127.5 127.4 440.0
14 16:40 16.1 80 10.97 12.7 20 24 1013.3 3.2 24.5 29.1 48.3 127.1 127.2 439.4
14 16:30 16.1 79 10.83 12.5 24 30 1013.3 3.2 24.2 28.9 47.7 125.6 125.2 432.6
14 16:20 16.2 79 10.89 12.6 22 24 1013.2 3.2 24.4 28.9 47.9 126.1 125.9 435.0
14 16:10 16.5 76 10.67 12.3 26 28 1013.1 3.2 23.9 28.5 46.8 123.1 122.4 422.7
14 16:00 16.9 74 10.64 12.2 28 32 1013 3.2 23.8 28.3 46.4 122.1 121.3 419.1
14 15:50 17.3 76 11.2 13 24 28 1012.9 3.2 25.0 29.1 48.5 127.7 128.3 443.6
14 15:40 16.8 78 11.15 12.9 20 24 1012.9 3.2 24.9 29.2 48.6 128.0 128.5 444.0
14 15:30 16.1 78 10.69 12.3 24 26 1012.9 3.2 23.9 28.6 47.1 123.9 123.3 425.8
14 15:20 16.7 76 10.8 12.5 32 35 1012.9 3.2 24.1 28.6 47.2 124.2 123.8 427.7
14 15:10 16.5 75 10.53 12.1 30 33 1012.7 3.2 23.6 28.2 46.2 121.5 120.4 415.9
14 15:00 16.9 75 10.79 12.4 33 41 1012.6 3.2 24.1 28.5 47.0 123.8 123.3 426.1
14 14:50 16.9 73 10.5 12 35 39 1012.4 3.2 23.5 28.0 45.8 120.5 119.4 412.2
14 14:40 17.2 77 11.28 13.1 39 44 1012.3 3.2 25.1 29.2 48.9 128.7 129.5 447.8
14 14:30 16.4 84 11.72 13.7 28 30 1012.3 3.2 26.1 30.3 51.3 135.1 137.1 474.1
14 14:20 16.6 82 11.58 13.5 28 32 1012.2 3.2 25.8 30.0 50.5 133.1 134.7 465.9
14 14:10 17 85 12.3 14.5 30 35 1012.2 3.2 27.3 31.1 53.4 140.7 144.2 499.1
14 14:00 16.8 92 13.15 15.5 24 30 1012.2 3.2 29.2 32.7 57.3 151.1 157.0 543.6
14 13:50 15.6 91 12.1 14.1 15 17 1012.3 3.2 27.0 31.2 53.5 140.9 144.0 498.2
14 13:40 15.7 90 12.04 14.1 26 28 1012.4 3.2 26.9 31.1 53.1 140.1 143.0 494.5
14 13:30 16 89 12.13 14.2 28 35 1012.5 3.2 27.0 31.1 53.3 140.6 143.7 497.2
14 13:20 16 89 12.13 14.2 30 35 1012.6 3.2 27.0 31.1 53.3 140.6 143.7 497.2
14 13:10 16.1 90 12.34 14.5 26 30 1012.7 3.2 27.5 31.5 54.2 142.9 146.6 507.2
14 13:00 15.9 90 12.19 14.3 26 30 1012.8 3.2 27.2 31.3 53.7 141.5 144.8 501.0
14 12:50 15.7 92 12.31 14.4 26 30 1012.9 3.2 27.4 31.6 54.4 143.3 147.0 508.4
14 12:40 15.3 92 12.01 14 30 32 1013 3.2 26.8 31.2 53.3 140.5 143.4 495.8
14 12:30 15.2 92 11.94 13.9 28 37 1013.1 3.2 26.7 31.1 53.1 139.9 142.5 492.9
14 12:20 15 93 11.93 13.9 28 32 1013.1 3.2 26.7 31.2 53.2 140.1 142.8 493.7
14 12:10 14.6 94 11.76 13.6 19 20 1013.2 3.2 26.3 31.0 52.7 138.8 141.1 487.7
14 12:00 14.7 92 11.58 13.4 22 26 1013.4 1.2 25.9 30.7 51.8 136.6 138.3 478.0
14 11:50 15.1 88 11.35 13.1 28 32 1013.5 0 25.4 30.1 50.6 133.2 134.3 464.0
14 11:40 15.2 87 11.29 13.1 30 33 1013.6 0 25.3 30.0 50.3 132.3 133.2 460.5
14 11:30 15.1 88 11.35 13.1 26 32 1013.7 0 25.4 30.1 50.6 133.2 134.3 464.1
14 11:20 15.2 88 11.42 13.2 26 30 1013.8 0 25.6 30.2 50.8 133.9 135.1 467.0
14 11:10 15.2 88 11.42 13.2 26 32 1013.9 0 25.6 30.2 50.8 133.9 135.1 467.1
14 11:00 14.7 87 10.95 12.6 30 33 1014 0 24.6 29.6 49.1 129.3 129.3 446.7
14 10:50 15 86 11.03 12.7 33 35 1014.1 0 24.7 29.6 49.3 129.7 130.0 449.0
14 10:40 15.1 86 11.09 12.8 26 30 1014.1 0 24.9 29.7 49.5 130.3 130.6 451.3
14 10:30 14.8 86 10.89 12.5 26 30 1014.4 0 24.4 29.5 48.8 128.5 128.3 443.3
14 10:20 14.7 86 10.83 12.4 24 28 1014.5 0 24.3 29.4 48.6 128.0 127.7 441.0
14 10:10 14.6 87 10.89 12.5 26 30 1014.5 0 24.5 29.5 48.9 128.9 128.7 444.5
14 10:00 14.3 87 10.69 12.2 24 32 1014.5 0 24.0 29.3 48.3 127.0 126.4 436.3
14 09:50 14.5 85 10.57 12 24 26 1014.6 0 23.8 29.0 47.6 125.4 124.4 429.3
14 09:40 14.3 87 10.69 12.2 22 28 1014.6 0 24.0 29.3 48.3 127.1 126.4 436.4

Last Refresh: 15-Jun-2024 02:13:42

Bureau of Meteorology